sensor_id;sensor_type;location;lat;lon;timestamp;P1;durP1;ratioP1;P2;durP2;ratioP2
68583;SDS011;55557;49.220;11.150;2023-09-30T00:02:14;10.67;;;4.33;;
68583;SDS011;55557;49.220;11.150;2023-09-30T00:04:40;20.27;;;4.37;;
68583;SDS011;55557;49.220;11.150;2023-09-30T00:07:06;13.23;;;5.00;;
68583;SDS011;55557;49.220;11.150;2023-09-30T00:09:32;9.17;;;3.73;;
68583;SDS011;55557;49.220;11.150;2023-09-30T00:11:58;10.23;;;4.07;;
68583;SDS011;55557;49.220;11.150;2023-09-30T00:14:25;8.87;;;4.60;;
68583;SDS011;55557;49.220;11.150;2023-09-30T00:16:51;17.87;;;4.60;;
68583;SDS011;55557;49.220;11.150;2023-09-30T00:19:17;12.53;;;4.57;;
68583;SDS011;55557;49.220;11.150;2023-09-30T00:21:43;12.40;;;3.80;;
68583;SDS011;55557;49.220;11.150;2023-09-30T00:24:09;14.33;;;4.20;;
68583;SDS011;55557;49.220;11.150;2023-09-30T00:26:35;11.10;;;5.20;;
68583;SDS011;55557;49.220;11.150;2023-09-30T00:29:01;10.60;;;3.77;;
68583;SDS011;55557;49.220;11.150;2023-09-30T00:31:29;9.50;;;3.83;;
68583;SDS011;55557;49.220;11.150;2023-09-30T00:33:56;12.97;;;4.57;;
68583;SDS011;55557;49.220;11.150;2023-09-30T00:36:22;12.83;;;4.20;;
68583;SDS011;55557;49.220;11.150;2023-09-30T00:38:48;12.70;;;4.20;;
68583;SDS011;55557;49.220;11.150;2023-09-30T00:41:14;9.77;;;3.77;;
68583;SDS011;55557;49.220;11.150;2023-09-30T00:43:40;8.27;;;4.17;;
68583;SDS011;55557;49.220;11.150;2023-09-30T00:46:06;9.80;;;4.20;;
68583;SDS011;55557;49.220;11.150;2023-09-30T00:48:37;10.93;;;4.13;;
68583;SDS011;55557;49.220;11.150;2023-09-30T00:51:04;8.20;;;4.00;;
68583;SDS011;55557;49.220;11.150;2023-09-30T00:53:30;10.00;;;4.07;;
68583;SDS011;55557;49.220;11.150;2023-09-30T00:55:56;9.33;;;3.87;;
68583;SDS011;55557;49.220;11.150;2023-09-30T00:58:24;8.20;;;3.63;;
68583;SDS011;55557;49.220;11.150;2023-09-30T01:00:53;11.47;;;3.83;;
68583;SDS011;55557;49.220;11.150;2023-09-30T01:03:20;7.93;;;3.53;;
68583;SDS011;55557;49.220;11.150;2023-09-30T01:05:47;13.73;;;4.93;;
68583;SDS011;55557;49.220;11.150;2023-09-30T01:08:14;13.03;;;4.23;;
68583;SDS011;55557;49.220;11.150;2023-09-30T01:10:40;12.30;;;4.00;;
68583;SDS011;55557;49.220;11.150;2023-09-30T01:13:06;11.67;;;4.40;;
68583;SDS011;55557;49.220;11.150;2023-09-30T01:15:32;8.83;;;4.00;;
68583;SDS011;55557;49.220;11.150;2023-09-30T01:17:59;8.03;;;3.70;;
68583;SDS011;55557;49.220;11.150;2023-09-30T01:20:25;9.87;;;3.87;;
68583;SDS011;55557;49.220;11.150;2023-09-30T01:22:52;9.60;;;4.30;;
68583;SDS011;55557;49.220;11.150;2023-09-30T01:25:21;9.80;;;3.43;;
68583;SDS011;55557;49.220;11.150;2023-09-30T01:27:47;10.30;;;3.83;;
68583;SDS011;55557;49.220;11.150;2023-09-30T01:30:13;13.77;;;4.07;;
68583;SDS011;55557;49.220;11.150;2023-09-30T01:32:39;9.07;;;3.67;;
68583;SDS011;55557;49.220;11.150;2023-09-30T01:35:05;10.00;;;3.53;;
68583;SDS011;55557;49.220;11.150;2023-09-30T01:37:32;9.57;;;3.83;;
68583;SDS011;55557;49.220;11.150;2023-09-30T01:39:58;11.97;;;4.03;;
68583;SDS011;55557;49.220;11.150;2023-09-30T01:42:24;11.43;;;3.63;;
68583;SDS011;55557;49.220;11.150;2023-09-30T01:44:51;11.83;;;3.93;;
68583;SDS011;55557;49.220;11.150;2023-09-30T01:47:17;11.10;;;3.83;;
68583;SDS011;55557;49.220;11.150;2023-09-30T01:49:43;8.27;;;3.87;;
68583;SDS011;55557;49.220;11.150;2023-09-30T01:52:09;8.57;;;4.00;;
68583;SDS011;55557;49.220;11.150;2023-09-30T01:54:35;10.27;;;3.80;;
68583;SDS011;55557;49.220;11.150;2023-09-30T01:57:01;10.93;;;4.73;;
68583;SDS011;55557;49.220;11.150;2023-09-30T01:59:28;8.50;;;3.57;;
68583;SDS011;55557;49.220;11.150;2023-09-30T02:01:54;14.03;;;4.23;;
68583;SDS011;55557;49.220;11.150;2023-09-30T02:04:20;11.13;;;4.37;;
68583;SDS011;55557;49.220;11.150;2023-09-30T02:06:46;10.87;;;4.20;;
68583;SDS011;55557;49.220;11.150;2023-09-30T02:09:12;7.60;;;2.77;;
68583;SDS011;55557;49.220;11.150;2023-09-30T02:11:38;8.73;;;3.83;;
68583;SDS011;55557;49.220;11.150;2023-09-30T02:14:06;11.17;;;4.53;;
68583;SDS011;55557;49.220;11.150;2023-09-30T02:16:32;11.03;;;4.00;;
68583;SDS011;55557;49.220;11.150;2023-09-30T02:18:58;9.50;;;3.90;;
68583;SDS011;55557;49.220;11.150;2023-09-30T02:21:25;11.00;;;4.23;;
68583;SDS011;55557;49.220;11.150;2023-09-30T02:23:52;9.97;;;3.80;;
68583;SDS011;55557;49.220;11.150;2023-09-30T02:26:20;9.97;;;4.00;;
68583;SDS011;55557;49.220;11.150;2023-09-30T02:28:46;10.80;;;3.73;;
68583;SDS011;55557;49.220;11.150;2023-09-30T02:31:12;8.30;;;3.70;;
68583;SDS011;55557;49.220;11.150;2023-09-30T02:33:38;14.87;;;4.50;;
68583;SDS011;55557;49.220;11.150;2023-09-30T02:36:08;10.70;;;4.20;;
68583;SDS011;55557;49.220;11.150;2023-09-30T02:38:34;12.00;;;4.20;;
68583;SDS011;55557;49.220;11.150;2023-09-30T02:41:02;11.90;;;4.90;;
68583;SDS011;55557;49.220;11.150;2023-09-30T02:43:28;10.20;;;4.30;;
68583;SDS011;55557;49.220;11.150;2023-09-30T02:45:54;12.70;;;4.50;;
68583;SDS011;55557;49.220;11.150;2023-09-30T02:48:20;12.03;;;4.97;;
68583;SDS011;55557;49.220;11.150;2023-09-30T02:50:46;8.67;;;3.90;;
68583;SDS011;55557;49.220;11.150;2023-09-30T02:53:12;10.33;;;4.23;;
68583;SDS011;55557;49.220;11.150;2023-09-30T02:55:39;12.30;;;4.03;;
68583;SDS011;55557;49.220;11.150;2023-09-30T02:58:06;12.67;;;4.63;;
68583;SDS011;55557;49.220;11.150;2023-09-30T03:00:33;9.60;;;4.27;;
68583;SDS011;55557;49.220;11.150;2023-09-30T03:03:00;7.87;;;3.97;;
68583;SDS011;55557;49.220;11.150;2023-09-30T03:05:27;8.33;;;3.30;;
68583;SDS011;55557;49.220;11.150;2023-09-30T03:07:55;8.30;;;3.93;;
68583;SDS011;55557;49.220;11.150;2023-09-30T03:10:21;9.53;;;3.50;;
68583;SDS011;55557;49.220;11.150;2023-09-30T03:12:52;13.60;;;4.77;;
68583;SDS011;55557;49.220;11.150;2023-09-30T03:15:18;8.10;;;3.47;;
68583;SDS011;55557;49.220;11.150;2023-09-30T03:17:44;7.50;;;3.93;;
68583;SDS011;55557;49.220;11.150;2023-09-30T03:20:10;7.33;;;3.80;;
68583;SDS011;55557;49.220;11.150;2023-09-30T03:22:43;9.73;;;3.83;;
68583;SDS011;55557;49.220;11.150;2023-09-30T03:25:14;10.57;;;4.20;;
68583;SDS011;55557;49.220;11.150;2023-09-30T03:27:43;12.17;;;3.63;;
68583;SDS011;55557;49.220;11.150;2023-09-30T03:30:11;8.33;;;3.63;;
68583;SDS011;55557;49.220;11.150;2023-09-30T03:32:37;6.20;;;3.20;;
68583;SDS011;55557;49.220;11.150;2023-09-30T03:35:08;7.83;;;3.50;;
68583;SDS011;55557;49.220;11.150;2023-09-30T03:37:36;9.83;;;3.83;;
68583;SDS011;55557;49.220;11.150;2023-09-30T03:40:02;12.47;;;4.60;;
68583;SDS011;55557;49.220;11.150;2023-09-30T03:42:38;8.87;;;3.80;;
68583;SDS011;55557;49.220;11.150;2023-09-30T03:45:05;9.20;;;4.10;;
68583;SDS011;55557;49.220;11.150;2023-09-30T03:47:34;7.67;;;3.37;;
68583;SDS011;55557;49.220;11.150;2023-09-30T03:50:01;5.23;;;3.00;;
68583;SDS011;55557;49.220;11.150;2023-09-30T03:52:28;8.53;;;3.30;;
68583;SDS011;55557;49.220;11.150;2023-09-30T03:54:54;5.00;;;2.47;;
68583;SDS011;55557;49.220;11.150;2023-09-30T03:57:20;6.00;;;2.60;;
68583;SDS011;55557;49.220;11.150;2023-09-30T03:59:46;5.03;;;2.07;;
68583;SDS011;55557;49.220;11.150;2023-09-30T04:02:12;6.60;;;2.83;;
68583;SDS011;55557;49.220;11.150;2023-09-30T04:04:39;2.73;;;1.43;;
68583;SDS011;55557;49.220;11.150;2023-09-30T04:07:05;1.93;;;1.23;;
68583;SDS011;55557;49.220;11.150;2023-09-30T04:09:34;5.07;;;1.37;;
68583;SDS011;55557;49.220;11.150;2023-09-30T04:12:01;2.83;;;0.80;;
68583;SDS011;55557;49.220;11.150;2023-09-30T04:14:27;1.03;;;0.60;;
68583;SDS011;55557;49.220;11.150;2023-09-30T04:16:53;1.00;;;0.50;;
68583;SDS011;55557;49.220;11.150;2023-09-30T04:19:19;0.70;;;0.70;;
68583;SDS011;55557;49.220;11.150;2023-09-30T04:21:46;0.20;;;0.20;;
68583;SDS011;55557;49.220;11.150;2023-09-30T04:24:12;1.87;;;0.37;;
68583;SDS011;55557;49.220;11.150;2023-09-30T04:26:38;1.90;;;0.77;;
68583;SDS011;55557;49.220;11.150;2023-09-30T04:29:06;1.57;;;0.83;;
68583;SDS011;55557;49.220;11.150;2023-09-30T04:31:35;3.40;;;1.43;;
68583;SDS011;55557;49.220;11.150;2023-09-30T04:34:02;3.20;;;1.40;;
68583;SDS011;55557;49.220;11.150;2023-09-30T04:36:29;4.03;;;2.03;;
68583;SDS011;55557;49.220;11.150;2023-09-30T04:38:55;6.40;;;1.70;;
68583;SDS011;55557;49.220;11.150;2023-09-30T04:41:21;5.10;;;1.57;;
68583;SDS011;55557;49.220;11.150;2023-09-30T04:43:49;5.27;;;1.73;;
68583;SDS011;55557;49.220;11.150;2023-09-30T04:46:17;3.37;;;1.80;;
68583;SDS011;55557;49.220;11.150;2023-09-30T04:48:45;4.87;;;1.73;;
68583;SDS011;55557;49.220;11.150;2023-09-30T04:51:13;5.50;;;1.70;;
68583;SDS011;55557;49.220;11.150;2023-09-30T04:53:43;5.73;;;1.97;;
68583;SDS011;55557;49.220;11.150;2023-09-30T04:56:11;5.10;;;2.07;;
68583;SDS011;55557;49.220;11.150;2023-09-30T04:58:37;4.47;;;1.77;;
68583;SDS011;55557;49.220;11.150;2023-09-30T05:01:03;4.40;;;2.00;;
68583;SDS011;55557;49.220;11.150;2023-09-30T05:03:29;4.10;;;2.10;;
68583;SDS011;55557;49.220;11.150;2023-09-30T05:05:55;4.87;;;1.87;;
68583;SDS011;55557;49.220;11.150;2023-09-30T05:08:23;6.20;;;2.10;;
68583;SDS011;55557;49.220;11.150;2023-09-30T05:10:49;4.53;;;2.17;;
68583;SDS011;55557;49.220;11.150;2023-09-30T05:13:15;2.60;;;1.50;;
68583;SDS011;55557;49.220;11.150;2023-09-30T05:15:42;4.73;;;2.03;;
68583;SDS011;55557;49.220;11.150;2023-09-30T05:18:08;2.67;;;1.60;;
68583;SDS011;55557;49.220;11.150;2023-09-30T05:20:35;4.67;;;2.33;;
68583;SDS011;55557;49.220;11.150;2023-09-30T05:23:02;4.53;;;2.33;;
68583;SDS011;55557;49.220;11.150;2023-09-30T05:25:29;4.47;;;1.60;;
68583;SDS011;55557;49.220;11.150;2023-09-30T05:27:55;4.20;;;2.20;;
68583;SDS011;55557;49.220;11.150;2023-09-30T05:30:21;4.07;;;1.77;;
68583;SDS011;55557;49.220;11.150;2023-09-30T05:32:47;2.37;;;1.70;;
68583;SDS011;55557;49.220;11.150;2023-09-30T05:35:17;3.50;;;1.93;;
68583;SDS011;55557;49.220;11.150;2023-09-30T05:37:44;5.43;;;1.87;;
68583;SDS011;55557;49.220;11.150;2023-09-30T05:40:10;3.43;;;1.63;;
68583;SDS011;55557;49.220;11.150;2023-09-30T05:43:03;1.83;;;1.40;;
68583;SDS011;55557;49.220;11.150;2023-09-30T05:45:31;5.57;;;1.73;;
68583;SDS011;55557;49.220;11.150;2023-09-30T05:47:59;4.77;;;2.30;;
68583;SDS011;55557;49.220;11.150;2023-09-30T05:50:28;3.60;;;1.93;;
68583;SDS011;55557;49.220;11.150;2023-09-30T05:52:54;8.10;;;2.27;;
68583;SDS011;55557;49.220;11.150;2023-09-30T05:55:21;3.13;;;1.90;;
68583;SDS011;55557;49.220;11.150;2023-09-30T05:57:48;7.10;;;1.90;;
68583;SDS011;55557;49.220;11.150;2023-09-30T06:00:15;3.43;;;1.53;;
68583;SDS011;55557;49.220;11.150;2023-09-30T06:02:50;2.33;;;1.23;;
68583;SDS011;55557;49.220;11.150;2023-09-30T06:05:17;5.33;;;1.57;;
68583;SDS011;55557;49.220;11.150;2023-09-30T06:07:44;1.53;;;1.13;;
68583;SDS011;55557;49.220;11.150;2023-09-30T06:10:11;1.27;;;1.00;;
68583;SDS011;55557;49.220;11.150;2023-09-30T06:12:37;1.73;;;0.83;;
68583;SDS011;55557;49.220;11.150;2023-09-30T06:15:03;2.57;;;1.27;;
68583;SDS011;55557;49.220;11.150;2023-09-30T06:17:31;3.17;;;0.90;;
68583;SDS011;55557;49.220;11.150;2023-09-30T06:19:58;0.70;;;0.57;;
68583;SDS011;55557;49.220;11.150;2023-09-30T06:22:33;2.10;;;0.80;;
68583;SDS011;55557;49.220;11.150;2023-09-30T06:24:59;0.83;;;0.60;;
68583;SDS011;55557;49.220;11.150;2023-09-30T06:27:25;0.80;;;0.60;;
68583;SDS011;55557;49.220;11.150;2023-09-30T06:29:51;1.20;;;0.77;;
68583;SDS011;55557;49.220;11.150;2023-09-30T06:32:17;0.63;;;0.57;;
68583;SDS011;55557;49.220;11.150;2023-09-30T06:34:44;0.67;;;0.67;;
68583;SDS011;55557;49.220;11.150;2023-09-30T06:37:10;0.97;;;0.70;;
68583;SDS011;55557;49.220;11.150;2023-09-30T06:39:36;0.67;;;0.60;;
68583;SDS011;55557;49.220;11.150;2023-09-30T06:42:02;0.80;;;0.60;;
68583;SDS011;55557;49.220;11.150;2023-09-30T06:44:28;1.93;;;0.83;;
68583;SDS011;55557;49.220;11.150;2023-09-30T06:46:56;0.60;;;0.50;;
68583;SDS011;55557;49.220;11.150;2023-09-30T06:49:22;0.77;;;0.60;;
68583;SDS011;55557;49.220;11.150;2023-09-30T06:51:49;0.40;;;0.40;;
68583;SDS011;55557;49.220;11.150;2023-09-30T06:54:15;0.40;;;0.40;;
68583;SDS011;55557;49.220;11.150;2023-09-30T06:56:42;0.70;;;0.60;;
68583;SDS011;55557;49.220;11.150;2023-09-30T06:59:08;0.70;;;0.70;;
68583;SDS011;55557;49.220;11.150;2023-09-30T07:01:35;0.93;;;0.80;;
68583;SDS011;55557;49.220;11.150;2023-09-30T07:04:01;1.80;;;1.00;;
68583;SDS011;55557;49.220;11.150;2023-09-30T07:06:28;1.07;;;0.97;;
68583;SDS011;55557;49.220;11.150;2023-09-30T07:08:54;1.67;;;0.90;;
68583;SDS011;55557;49.220;11.150;2023-09-30T07:11:26;1.00;;;0.80;;
68583;SDS011;55557;49.220;11.150;2023-09-30T07:13:53;0.93;;;0.80;;
68583;SDS011;55557;49.220;11.150;2023-09-30T07:16:19;1.70;;;1.10;;
68583;SDS011;55557;49.220;11.150;2023-09-30T07:18:45;1.70;;;1.20;;
68583;SDS011;55557;49.220;11.150;2023-09-30T07:21:11;4.20;;;1.40;;
68583;SDS011;55557;49.220;11.150;2023-09-30T07:23:37;2.00;;;1.63;;
68583;SDS011;55557;49.220;11.150;2023-09-30T07:26:03;1.60;;;1.37;;
68583;SDS011;55557;49.220;11.150;2023-09-30T07:28:29;2.00;;;1.43;;
68583;SDS011;55557;49.220;11.150;2023-09-30T07:30:56;1.47;;;1.37;;
68583;SDS011;55557;49.220;11.150;2023-09-30T07:33:22;2.10;;;1.50;;
68583;SDS011;55557;49.220;11.150;2023-09-30T07:35:48;4.07;;;1.60;;
68583;SDS011;55557;49.220;11.150;2023-09-30T07:38:14;3.17;;;1.40;;
68583;SDS011;55557;49.220;11.150;2023-09-30T07:40:40;2.47;;;1.60;;
68583;SDS011;55557;49.220;11.150;2023-09-30T07:43:07;3.90;;;1.50;;
68583;SDS011;55557;49.220;11.150;2023-09-30T07:45:33;4.07;;;1.30;;
68583;SDS011;55557;49.220;11.150;2023-09-30T07:47:59;5.50;;;2.03;;
68583;SDS011;55557;49.220;11.150;2023-09-30T07:50:29;4.10;;;2.37;;
68583;SDS011;55557;49.220;11.150;2023-09-30T07:52:55;3.00;;;1.60;;
68583;SDS011;55557;49.220;11.150;2023-09-30T07:55:21;3.87;;;1.77;;
68583;SDS011;55557;49.220;11.150;2023-09-30T07:57:47;8.23;;;2.07;;
68583;SDS011;55557;49.220;11.150;2023-09-30T08:00:13;3.73;;;1.70;;
68583;SDS011;55557;49.220;11.150;2023-09-30T08:02:40;3.43;;;1.50;;
68583;SDS011;55557;49.220;11.150;2023-09-30T08:05:07;2.47;;;1.43;;
68583;SDS011;55557;49.220;11.150;2023-09-30T08:07:33;4.63;;;1.63;;
68583;SDS011;55557;49.220;11.150;2023-09-30T08:09:59;5.50;;;2.13;;
68583;SDS011;55557;49.220;11.150;2023-09-30T08:12:25;3.80;;;1.80;;
68583;SDS011;55557;49.220;11.150;2023-09-30T08:14:51;8.97;;;2.47;;
68583;SDS011;55557;49.220;11.150;2023-09-30T08:17:17;3.93;;;2.10;;
68583;SDS011;55557;49.220;11.150;2023-09-30T08:19:44;5.37;;;1.67;;
68583;SDS011;55557;49.220;11.150;2023-09-30T08:22:12;4.23;;;2.07;;
68583;SDS011;55557;49.220;11.150;2023-09-30T08:24:38;6.43;;;1.87;;
68583;SDS011;55557;49.220;11.150;2023-09-30T08:27:04;5.57;;;2.23;;
68583;SDS011;55557;49.220;11.150;2023-09-30T08:29:33;5.70;;;1.90;;
68583;SDS011;55557;49.220;11.150;2023-09-30T08:32:01;3.40;;;1.83;;
68583;SDS011;55557;49.220;11.150;2023-09-30T08:34:28;4.87;;;2.20;;
68583;SDS011;55557;49.220;11.150;2023-09-30T08:36:54;4.77;;;2.47;;
68583;SDS011;55557;49.220;11.150;2023-09-30T08:39:20;5.67;;;2.40;;
68583;SDS011;55557;49.220;11.150;2023-09-30T08:41:46;6.60;;;2.43;;
68583;SDS011;55557;49.220;11.150;2023-09-30T08:44:12;3.50;;;2.10;;
68583;SDS011;55557;49.220;11.150;2023-09-30T08:46:38;5.87;;;2.60;;
68583;SDS011;55557;49.220;11.150;2023-09-30T08:49:04;6.77;;;2.40;;
68583;SDS011;55557;49.220;11.150;2023-09-30T08:51:31;5.70;;;2.57;;
68583;SDS011;55557;49.220;11.150;2023-09-30T08:53:58;5.37;;;2.83;;
68583;SDS011;55557;49.220;11.150;2023-09-30T08:56:25;5.20;;;2.77;;
68583;SDS011;55557;49.220;11.150;2023-09-30T08:58:54;5.33;;;2.90;;
68583;SDS011;55557;49.220;11.150;2023-09-30T09:01:23;5.27;;;2.80;;
68583;SDS011;55557;49.220;11.150;2023-09-30T09:03:49;5.57;;;2.23;;
68583;SDS011;55557;49.220;11.150;2023-09-30T09:06:18;4.70;;;2.43;;
68583;SDS011;55557;49.220;11.150;2023-09-30T09:08:44;6.20;;;2.53;;
68583;SDS011;55557;49.220;11.150;2023-09-30T09:11:10;4.63;;;2.47;;
68583;SDS011;55557;49.220;11.150;2023-09-30T09:13:52;7.47;;;2.83;;
68583;SDS011;55557;49.220;11.150;2023-09-30T09:16:22;4.93;;;2.20;;
68583;SDS011;55557;49.220;11.150;2023-09-30T09:18:49;5.27;;;2.43;;
68583;SDS011;55557;49.220;11.150;2023-09-30T09:21:22;8.07;;;2.50;;
68583;SDS011;55557;49.220;11.150;2023-09-30T09:23:51;4.57;;;2.50;;
68583;SDS011;55557;49.220;11.150;2023-09-30T09:26:27;5.27;;;2.63;;
68583;SDS011;55557;49.220;11.150;2023-09-30T09:28:56;5.73;;;2.37;;
68583;SDS011;55557;49.220;11.150;2023-09-30T09:31:27;5.53;;;2.50;;
68583;SDS011;55557;49.220;11.150;2023-09-30T09:33:53;4.87;;;2.10;;
68583;SDS011;55557;49.220;11.150;2023-09-30T09:36:19;5.77;;;2.50;;
68583;SDS011;55557;49.220;11.150;2023-09-30T09:38:49;5.43;;;2.60;;
68583;SDS011;55557;49.220;11.150;2023-09-30T09:41:18;3.80;;;2.07;;
68583;SDS011;55557;49.220;11.150;2023-09-30T09:43:44;5.90;;;2.53;;
68583;SDS011;55557;49.220;11.150;2023-09-30T09:46:14;5.20;;;2.13;;
68583;SDS011;55557;49.220;11.150;2023-09-30T09:48:41;3.67;;;2.00;;
68583;SDS011;55557;49.220;11.150;2023-09-30T09:51:08;7.37;;;2.10;;
68583;SDS011;55557;49.220;11.150;2023-09-30T09:53:35;11.07;;;2.43;;
68583;SDS011;55557;49.220;11.150;2023-09-30T09:56:02;4.73;;;2.10;;
68583;SDS011;55557;49.220;11.150;2023-09-30T09:58:31;4.00;;;2.33;;
68583;SDS011;55557;49.220;11.150;2023-09-30T10:00:58;6.97;;;2.60;;
68583;SDS011;55557;49.220;11.150;2023-09-30T10:03:25;6.13;;;2.33;;
68583;SDS011;55557;49.220;11.150;2023-09-30T10:05:52;4.87;;;2.23;;
68583;SDS011;55557;49.220;11.150;2023-09-30T10:08:18;3.77;;;2.00;;
68583;SDS011;55557;49.220;11.150;2023-09-30T10:10:46;7.43;;;2.27;;
68583;SDS011;55557;49.220;11.150;2023-09-30T10:13:49;2.53;;;1.70;;
68583;SDS011;55557;49.220;11.150;2023-09-30T10:16:04;10.03;;;3.00;;
68583;SDS011;55557;49.220;11.150;2023-09-30T10:18:30;5.97;;;2.43;;
68583;SDS011;55557;49.220;11.150;2023-09-30T10:21:16;4.73;;;2.17;;
68583;SDS011;55557;49.220;11.150;2023-09-30T10:23:43;6.50;;;2.60;;
68583;SDS011;55557;49.220;11.150;2023-09-30T10:28:39;6.00;;;2.00;;
68583;SDS011;55557;49.220;11.150;2023-09-30T10:31:21;9.73;;;2.47;;
68583;SDS011;55557;49.220;11.150;2023-09-30T10:36:39;4.60;;;2.80;;
68583;SDS011;55557;49.220;11.150;2023-09-30T10:39:06;9.07;;;2.53;;
68583;SDS011;55557;49.220;11.150;2023-09-30T10:46:50;4.53;;;2.20;;
68583;SDS011;55557;49.220;11.150;2023-09-30T10:51:42;4.83;;;2.40;;
68583;SDS011;55557;49.220;11.150;2023-09-30T10:54:09;8.53;;;2.53;;
68583;SDS011;55557;49.220;11.150;2023-09-30T10:56:37;8.87;;;2.97;;
68583;SDS011;55557;49.220;11.150;2023-09-30T10:59:03;8.90;;;2.70;;
68583;SDS011;55557;49.220;11.150;2023-09-30T11:01:33;5.73;;;2.70;;
68583;SDS011;55557;49.220;11.150;2023-09-30T11:04:00;8.63;;;2.97;;
68583;SDS011;55557;49.220;11.150;2023-09-30T11:06:31;5.70;;;2.73;;
68583;SDS011;55557;49.220;11.150;2023-09-30T11:08:58;4.20;;;2.33;;
68583;SDS011;55557;49.220;11.150;2023-09-30T11:11:37;10.20;;;2.80;;
68583;SDS011;55557;49.220;11.150;2023-09-30T11:16:50;8.27;;;3.23;;
68583;SDS011;55557;49.220;11.150;2023-09-30T11:19:17;6.37;;;3.33;;
68583;SDS011;55557;49.220;11.150;2023-09-30T11:21:46;6.80;;;2.87;;
68583;SDS011;55557;49.220;11.150;2023-09-30T11:24:13;4.40;;;2.67;;
68583;SDS011;55557;49.220;11.150;2023-09-30T11:26:39;5.90;;;2.47;;
68583;SDS011;55557;49.220;11.150;2023-09-30T11:29:07;4.60;;;2.57;;
68583;SDS011;55557;49.220;11.150;2023-09-30T11:31:33;10.77;;;2.80;;
68583;SDS011;55557;49.220;11.150;2023-09-30T11:34:00;3.93;;;2.23;;
68583;SDS011;55557;49.220;11.150;2023-09-30T11:36:30;6.97;;;3.37;;
68583;SDS011;55557;49.220;11.150;2023-09-30T11:39:05;6.30;;;2.63;;
68583;SDS011;55557;49.220;11.150;2023-09-30T11:41:34;4.70;;;2.57;;
68583;SDS011;55557;49.220;11.150;2023-09-30T11:44:04;7.83;;;2.93;;
68583;SDS011;55557;49.220;11.150;2023-09-30T11:46:30;10.33;;;2.90;;
68583;SDS011;55557;49.220;11.150;2023-09-30T11:51:28;8.70;;;3.00;;
68583;SDS011;55557;49.220;11.150;2023-09-30T11:53:54;3.90;;;2.40;;
68583;SDS011;55557;49.220;11.150;2023-09-30T11:56:24;6.73;;;2.70;;
68583;SDS011;55557;49.220;11.150;2023-09-30T11:58:54;10.83;;;3.27;;
68583;SDS011;55557;49.220;11.150;2023-09-30T12:01:20;6.07;;;3.07;;
68583;SDS011;55557;49.220;11.150;2023-09-30T12:03:47;5.47;;;2.77;;
68583;SDS011;55557;49.220;11.150;2023-09-30T12:06:13;6.50;;;2.90;;
68583;SDS011;55557;49.220;11.150;2023-09-30T12:08:41;6.47;;;2.60;;
68583;SDS011;55557;49.220;11.150;2023-09-30T12:11:07;8.30;;;3.63;;
68583;SDS011;55557;49.220;11.150;2023-09-30T12:13:33;9.27;;;3.97;;
68583;SDS011;55557;49.220;11.150;2023-09-30T12:15:59;6.03;;;2.30;;
68583;SDS011;55557;49.220;11.150;2023-09-30T12:18:26;9.20;;;3.60;;
68583;SDS011;55557;49.220;11.150;2023-09-30T12:20:53;7.87;;;3.60;;
68583;SDS011;55557;49.220;11.150;2023-09-30T12:23:19;9.07;;;3.40;;
68583;SDS011;55557;49.220;11.150;2023-09-30T12:25:45;6.80;;;3.03;;
68583;SDS011;55557;49.220;11.150;2023-09-30T12:28:12;6.20;;;2.87;;
68583;SDS011;55557;49.220;11.150;2023-09-30T12:30:39;9.23;;;3.07;;
68583;SDS011;55557;49.220;11.150;2023-09-30T12:33:05;6.53;;;2.87;;
68583;SDS011;55557;49.220;11.150;2023-09-30T12:35:32;6.70;;;3.00;;
68583;SDS011;55557;49.220;11.150;2023-09-30T12:37:58;5.50;;;3.00;;
68583;SDS011;55557;49.220;11.150;2023-09-30T12:40:24;5.63;;;3.40;;
68583;SDS011;55557;49.220;11.150;2023-09-30T12:42:50;7.27;;;3.20;;
68583;SDS011;55557;49.220;11.150;2023-09-30T12:45:17;5.87;;;3.07;;
68583;SDS011;55557;49.220;11.150;2023-09-30T12:47:43;5.07;;;2.33;;
68583;SDS011;55557;49.220;11.150;2023-09-30T12:50:09;7.00;;;3.30;;
68583;SDS011;55557;49.220;11.150;2023-09-30T12:52:35;6.77;;;3.00;;
68583;SDS011;55557;49.220;11.150;2023-09-30T12:55:03;7.77;;;3.30;;
68583;SDS011;55557;49.220;11.150;2023-09-30T12:57:30;10.63;;;3.23;;
68583;SDS011;55557;49.220;11.150;2023-09-30T12:59:56;6.07;;;3.20;;
68583;SDS011;55557;49.220;11.150;2023-09-30T13:02:22;7.47;;;2.67;;
68583;SDS011;55557;49.220;11.150;2023-09-30T13:04:48;6.07;;;3.00;;
68583;SDS011;55557;49.220;11.150;2023-09-30T13:07:14;7.90;;;3.00;;
68583;SDS011;55557;49.220;11.150;2023-09-30T13:09:40;6.70;;;3.23;;
68583;SDS011;55557;49.220;11.150;2023-09-30T13:12:07;5.20;;;2.73;;
68583;SDS011;55557;49.220;11.150;2023-09-30T13:14:33;7.27;;;3.37;;
68583;SDS011;55557;49.220;11.150;2023-09-30T13:16:59;6.53;;;2.73;;
68583;SDS011;55557;49.220;11.150;2023-09-30T13:19:26;6.27;;;3.20;;
68583;SDS011;55557;49.220;11.150;2023-09-30T13:21:52;5.60;;;2.87;;
68583;SDS011;55557;49.220;11.150;2023-09-30T13:24:18;6.23;;;4.00;;
68583;SDS011;55557;49.220;11.150;2023-09-30T13:26:45;7.10;;;3.50;;
68583;SDS011;55557;49.220;11.150;2023-09-30T13:29:11;7.33;;;3.70;;
68583;SDS011;55557;49.220;11.150;2023-09-30T13:31:38;10.97;;;3.67;;
68583;SDS011;55557;49.220;11.150;2023-09-30T13:34:04;7.77;;;3.13;;
68583;SDS011;55557;49.220;11.150;2023-09-30T13:36:31;6.50;;;3.03;;
68583;SDS011;55557;49.220;11.150;2023-09-30T13:38:57;8.23;;;3.20;;
68583;SDS011;55557;49.220;11.150;2023-09-30T13:41:23;7.07;;;3.47;;
68583;SDS011;55557;49.220;11.150;2023-09-30T13:43:49;6.80;;;2.83;;
68583;SDS011;55557;49.220;11.150;2023-09-30T13:46:15;7.03;;;3.23;;
68583;SDS011;55557;49.220;11.150;2023-09-30T13:48:42;8.70;;;3.70;;
68583;SDS011;55557;49.220;11.150;2023-09-30T13:51:08;9.10;;;3.30;;
68583;SDS011;55557;49.220;11.150;2023-09-30T13:53:35;8.47;;;3.23;;
68583;SDS011;55557;49.220;11.150;2023-09-30T13:56:01;5.83;;;3.13;;
68583;SDS011;55557;49.220;11.150;2023-09-30T13:58:28;7.43;;;3.33;;
68583;SDS011;55557;49.220;11.150;2023-09-30T14:00:55;7.20;;;3.20;;
68583;SDS011;55557;49.220;11.150;2023-09-30T14:03:22;7.77;;;3.00;;
68583;SDS011;55557;49.220;11.150;2023-09-30T14:05:53;10.67;;;3.57;;
68583;SDS011;55557;49.220;11.150;2023-09-30T14:08:22;7.40;;;3.43;;
68583;SDS011;55557;49.220;11.150;2023-09-30T14:10:49;7.20;;;3.13;;
68583;SDS011;55557;49.220;11.150;2023-09-30T14:13:16;9.07;;;3.70;;
68583;SDS011;55557;49.220;11.150;2023-09-30T14:15:42;9.93;;;3.67;;
68583;SDS011;55557;49.220;11.150;2023-09-30T14:18:08;6.87;;;3.13;;
68583;SDS011;55557;49.220;11.150;2023-09-30T14:20:34;5.67;;;3.10;;
68583;SDS011;55557;49.220;11.150;2023-09-30T14:23:00;9.43;;;4.50;;
68583;SDS011;55557;49.220;11.150;2023-09-30T14:25:27;8.23;;;3.40;;
68583;SDS011;55557;49.220;11.150;2023-09-30T14:27:53;8.43;;;3.43;;
68583;SDS011;55557;49.220;11.150;2023-09-30T14:30:19;9.27;;;4.10;;
68583;SDS011;55557;49.220;11.150;2023-09-30T14:32:46;8.73;;;3.77;;
68583;SDS011;55557;49.220;11.150;2023-09-30T14:35:12;8.77;;;3.37;;
68583;SDS011;55557;49.220;11.150;2023-09-30T14:37:38;9.87;;;3.97;;
68583;SDS011;55557;49.220;11.150;2023-09-30T14:40:05;8.67;;;3.93;;
68583;SDS011;55557;49.220;11.150;2023-09-30T14:42:35;7.20;;;3.53;;
68583;SDS011;55557;49.220;11.150;2023-09-30T14:45:02;6.80;;;3.30;;
68583;SDS011;55557;49.220;11.150;2023-09-30T14:47:28;10.60;;;4.37;;
68583;SDS011;55557;49.220;11.150;2023-09-30T14:49:54;12.97;;;3.80;;
68583;SDS011;55557;49.220;11.150;2023-09-30T14:52:20;8.87;;;3.63;;